sensor_id;sensor_type;location;lat;lon;timestamp;P1;durP1;ratioP1;P2;durP2;ratioP2
434;SDS011;204;48.942;9.256;2022-12-08T00:01:09;44.20;;;31.30;;
434;SDS011;204;48.942;9.256;2022-12-08T00:03:36;49.20;;;33.88;;
434;SDS011;204;48.942;9.256;2022-12-08T00:06:03;32.85;;;22.50;;
434;SDS011;204;48.942;9.256;2022-12-08T00:08:48;26.95;;;22.17;;
434;SDS011;204;48.942;9.256;2022-12-08T00:11:33;22.10;;;19.75;;
434;SDS011;204;48.942;9.256;2022-12-08T00:13:59;25.63;;;20.23;;
434;SDS011;204;48.942;9.256;2022-12-08T00:16:24;26.87;;;22.60;;
434;SDS011;204;48.942;9.256;2022-12-08T00:18:50;27.00;;;22.17;;
434;SDS011;204;48.942;9.256;2022-12-08T00:21:15;26.87;;;22.10;;
434;SDS011;204;48.942;9.256;2022-12-08T00:23:41;25.30;;;21.17;;
434;SDS011;204;48.942;9.256;2022-12-08T00:26:07;27.60;;;20.97;;
434;SDS011;204;48.942;9.256;2022-12-08T00:28:33;28.07;;;21.13;;
434;SDS011;204;48.942;9.256;2022-12-08T00:30:59;24.85;;;21.02;;
434;SDS011;204;48.942;9.256;2022-12-08T00:33:30;25.48;;;21.88;;
434;SDS011;204;48.942;9.256;2022-12-08T00:35:56;26.37;;;21.93;;
434;SDS011;204;48.942;9.256;2022-12-08T00:38:21;24.57;;;20.00;;
434;SDS011;204;48.942;9.256;2022-12-08T00:40:47;25.90;;;21.57;;
434;SDS011;204;48.942;9.256;2022-12-08T00:43:13;27.70;;;19.93;;
434;SDS011;204;48.942;9.256;2022-12-08T00:45:39;27.85;;;21.17;;
434;SDS011;204;48.942;9.256;2022-12-08T00:48:04;25.77;;;21.20;;
434;SDS011;204;48.942;9.256;2022-12-08T00:50:30;32.08;;;22.48;;
434;SDS011;204;48.942;9.256;2022-12-08T00:52:57;27.10;;;21.55;;
434;SDS011;204;48.942;9.256;2022-12-08T00:55:22;31.00;;;22.57;;
434;SDS011;204;48.942;9.256;2022-12-08T00:57:48;29.30;;;23.30;;
434;SDS011;204;48.942;9.256;2022-12-08T01:00:13;25.37;;;21.20;;
434;SDS011;204;48.942;9.256;2022-12-08T01:02:39;24.08;;;20.83;;
434;SDS011;204;48.942;9.256;2022-12-08T01:05:05;28.47;;;22.43;;
434;SDS011;204;48.942;9.256;2022-12-08T01:07:31;33.90;;;21.43;;
434;SDS011;204;48.942;9.256;2022-12-08T01:09:57;33.37;;;21.63;;
434;SDS011;204;48.942;9.256;2022-12-08T01:12:22;27.90;;;21.70;;
434;SDS011;204;48.942;9.256;2022-12-08T01:14:48;24.70;;;19.13;;
434;SDS011;204;48.942;9.256;2022-12-08T01:17:14;27.57;;;19.80;;
434;SDS011;204;48.942;9.256;2022-12-08T01:19:39;25.30;;;19.33;;
434;SDS011;204;48.942;9.256;2022-12-08T01:22:05;27.53;;;20.40;;
434;SDS011;204;48.942;9.256;2022-12-08T01:24:30;25.00;;;19.10;;
434;SDS011;204;48.942;9.256;2022-12-08T01:26:56;25.20;;;19.33;;
434;SDS011;204;48.942;9.256;2022-12-08T01:29:22;25.83;;;18.57;;
434;SDS011;204;48.942;9.256;2022-12-08T01:31:47;22.90;;;16.73;;
434;SDS011;204;48.942;9.256;2022-12-08T01:34:13;23.23;;;18.93;;
434;SDS011;204;48.942;9.256;2022-12-08T01:36:38;19.63;;;15.77;;
434;SDS011;204;48.942;9.256;2022-12-08T01:39:05;20.40;;;15.83;;
434;SDS011;204;48.942;9.256;2022-12-08T01:41:33;21.80;;;17.30;;
434;SDS011;204;48.942;9.256;2022-12-08T01:44:01;20.52;;;16.65;;
434;SDS011;204;48.942;9.256;2022-12-08T01:46:32;18.25;;;15.38;;
434;SDS011;204;48.942;9.256;2022-12-08T01:51:51;19.27;;;16.83;;
434;SDS011;204;48.942;9.256;2022-12-08T01:54:34;21.15;;;16.83;;
434;SDS011;204;48.942;9.256;2022-12-08T01:57:10;22.60;;;17.08;;
434;SDS011;204;48.942;9.256;2022-12-08T02:00:10;19.42;;;16.15;;
434;SDS011;204;48.942;9.256;2022-12-08T02:05:27;19.23;;;16.77;;
434;SDS011;204;48.942;9.256;2022-12-08T02:08:03;20.83;;;16.48;;
434;SDS011;204;48.942;9.256;2022-12-08T02:10:32;21.33;;;16.60;;
434;SDS011;204;48.942;9.256;2022-12-08T02:12:59;19.63;;;18.30;;
434;SDS011;204;48.942;9.256;2022-12-08T02:15:31;22.58;;;18.65;;
434;SDS011;204;48.942;9.256;2022-12-08T02:18:34;24.73;;;18.58;;
434;SDS011;204;48.942;9.256;2022-12-08T02:37:25;23.23;;;18.98;;
434;SDS011;204;48.942;9.256;2022-12-08T02:40:20;22.88;;;17.30;;
434;SDS011;204;48.942;9.256;2022-12-08T02:43:47;23.85;;;19.20;;
434;SDS011;204;48.942;9.256;2022-12-08T02:46:26;24.60;;;19.20;;
434;SDS011;204;48.942;9.256;2022-12-08T02:48:57;26.20;;;20.40;;
434;SDS011;204;48.942;9.256;2022-12-08T02:51:24;27.02;;;19.90;;
434;SDS011;204;48.942;9.256;2022-12-08T02:53:50;27.02;;;19.73;;
434;SDS011;204;48.942;9.256;2022-12-08T03:02:07;24.13;;;17.67;;
434;SDS011;204;48.942;9.256;2022-12-08T03:04:49;24.80;;;19.77;;
434;SDS011;204;48.942;9.256;2022-12-08T03:09:58;27.42;;;20.55;;
434;SDS011;204;48.942;9.256;2022-12-08T03:12:48;26.35;;;20.85;;
434;SDS011;204;48.942;9.256;2022-12-08T03:15:18;22.98;;;19.48;;
434;SDS011;204;48.942;9.256;2022-12-08T03:17:46;25.67;;;20.10;;
434;SDS011;204;48.942;9.256;2022-12-08T03:20:18;25.23;;;19.70;;
434;SDS011;204;48.942;9.256;2022-12-08T03:22:46;23.85;;;18.15;;
434;SDS011;204;48.942;9.256;2022-12-08T03:25:14;22.95;;;17.98;;
434;SDS011;204;48.942;9.256;2022-12-08T03:27:42;19.55;;;17.35;;
434;SDS011;204;48.942;9.256;2022-12-08T03:30:08;25.20;;;19.00;;
434;SDS011;204;48.942;9.256;2022-12-08T03:35:18;21.65;;;16.98;;
434;SDS011;204;48.942;9.256;2022-12-08T03:37:47;21.42;;;17.17;;
434;SDS011;204;48.942;9.256;2022-12-08T03:40:15;22.83;;;17.63;;
434;SDS011;204;48.942;9.256;2022-12-08T03:42:42;22.88;;;18.27;;
434;SDS011;204;48.942;9.256;2022-12-08T03:45:07;24.73;;;16.30;;
434;SDS011;204;48.942;9.256;2022-12-08T03:47:33;25.80;;;18.80;;
434;SDS011;204;48.942;9.256;2022-12-08T03:49:59;20.60;;;16.63;;
434;SDS011;204;48.942;9.256;2022-12-08T03:52:25;22.33;;;17.70;;
434;SDS011;204;48.942;9.256;2022-12-08T03:54:50;23.00;;;17.20;;
434;SDS011;204;48.942;9.256;2022-12-08T03:57:16;25.37;;;17.97;;
434;SDS011;204;48.942;9.256;2022-12-08T03:59:41;21.17;;;16.73;;
434;SDS011;204;48.942;9.256;2022-12-08T04:02:07;23.40;;;18.40;;
434;SDS011;204;48.942;9.256;2022-12-08T04:04:33;18.70;;;16.10;;
434;SDS011;204;48.942;9.256;2022-12-08T04:06:59;20.30;;;16.33;;
434;SDS011;204;48.942;9.256;2022-12-08T04:09:24;19.03;;;15.70;;
434;SDS011;204;48.942;9.256;2022-12-08T04:11:50;23.20;;;17.10;;
434;SDS011;204;48.942;9.256;2022-12-08T04:14:15;19.67;;;16.30;;
434;SDS011;204;48.942;9.256;2022-12-08T04:16:41;15.97;;;15.20;;
434;SDS011;204;48.942;9.256;2022-12-08T04:19:06;19.43;;;15.90;;
434;SDS011;204;48.942;9.256;2022-12-08T04:21:32;24.37;;;17.03;;
434;SDS011;204;48.942;9.256;2022-12-08T04:23:58;17.60;;;15.23;;
434;SDS011;204;48.942;9.256;2022-12-08T04:26:23;20.27;;;15.97;;
434;SDS011;204;48.942;9.256;2022-12-08T04:28:49;19.80;;;16.20;;
434;SDS011;204;48.942;9.256;2022-12-08T04:31:15;20.07;;;15.73;;
434;SDS011;204;48.942;9.256;2022-12-08T04:33:40;20.20;;;16.00;;
434;SDS011;204;48.942;9.256;2022-12-08T04:36:06;19.63;;;16.10;;
434;SDS011;204;48.942;9.256;2022-12-08T04:38:32;21.02;;;17.58;;
434;SDS011;204;48.942;9.256;2022-12-08T04:40:58;23.83;;;16.35;;
434;SDS011;204;48.942;9.256;2022-12-08T04:43:24;25.00;;;18.05;;
434;SDS011;204;48.942;9.256;2022-12-08T04:45:50;20.33;;;17.70;;
434;SDS011;204;48.942;9.256;2022-12-08T04:48:16;26.40;;;17.67;;
434;SDS011;204;48.942;9.256;2022-12-08T04:50:42;20.70;;;17.87;;
434;SDS011;204;48.942;9.256;2022-12-08T04:53:09;19.98;;;17.52;;
434;SDS011;204;48.942;9.256;2022-12-08T04:55:40;22.02;;;17.65;;
434;SDS011;204;48.942;9.256;2022-12-08T04:58:09;22.77;;;18.60;;
434;SDS011;204;48.942;9.256;2022-12-08T05:00:37;22.27;;;18.40;;
434;SDS011;204;48.942;9.256;2022-12-08T05:03:02;22.43;;;17.70;;
434;SDS011;204;48.942;9.256;2022-12-08T05:05:28;22.83;;;18.70;;
434;SDS011;204;48.942;9.256;2022-12-08T05:07:53;21.20;;;17.60;;
434;SDS011;204;48.942;9.256;2022-12-08T05:10:19;24.50;;;18.33;;
434;SDS011;204;48.942;9.256;2022-12-08T05:12:44;25.50;;;18.00;;
434;SDS011;204;48.942;9.256;2022-12-08T05:15:10;22.70;;;19.33;;
434;SDS011;204;48.942;9.256;2022-12-08T05:17:36;24.87;;;19.77;;
434;SDS011;204;48.942;9.256;2022-12-08T05:20:01;26.50;;;21.40;;
434;SDS011;204;48.942;9.256;2022-12-08T05:22:27;29.80;;;23.83;;
434;SDS011;204;48.942;9.256;2022-12-08T05:24:52;30.30;;;24.80;;
434;SDS011;204;48.942;9.256;2022-12-08T05:27:18;26.97;;;22.57;;
434;SDS011;204;48.942;9.256;2022-12-08T05:29:44;24.13;;;19.10;;
434;SDS011;204;48.942;9.256;2022-12-08T05:32:09;25.87;;;18.33;;
434;SDS011;204;48.942;9.256;2022-12-08T05:34:35;25.57;;;21.60;;
434;SDS011;204;48.942;9.256;2022-12-08T05:37:00;26.33;;;21.43;;
434;SDS011;204;48.942;9.256;2022-12-08T05:39:26;21.93;;;19.33;;
434;SDS011;204;48.942;9.256;2022-12-08T05:41:51;23.60;;;20.10;;
434;SDS011;204;48.942;9.256;2022-12-08T05:44:17;23.40;;;20.03;;
434;SDS011;204;48.942;9.256;2022-12-08T05:46:43;28.40;;;20.17;;
434;SDS011;204;48.942;9.256;2022-12-08T05:49:08;21.97;;;18.50;;
434;SDS011;204;48.942;9.256;2022-12-08T05:51:34;24.50;;;18.50;;
434;SDS011;204;48.942;9.256;2022-12-08T05:53:59;26.20;;;20.20;;
434;SDS011;204;48.942;9.256;2022-12-08T05:56:25;25.10;;;20.67;;
434;SDS011;204;48.942;9.256;2022-12-08T05:58:50;26.10;;;22.00;;
434;SDS011;204;48.942;9.256;2022-12-08T06:01:26;25.93;;;20.20;;
434;SDS011;204;48.942;9.256;2022-12-08T06:03:54;25.60;;;19.80;;
434;SDS011;204;48.942;9.256;2022-12-08T06:06:21;27.17;;;21.35;;
434;SDS011;204;48.942;9.256;2022-12-08T06:08:46;25.53;;;20.67;;
434;SDS011;204;48.942;9.256;2022-12-08T06:11:25;21.83;;;18.30;;
434;SDS011;204;48.942;9.256;2022-12-08T06:13:52;24.13;;;18.30;;
434;SDS011;204;48.942;9.256;2022-12-08T06:16:20;25.42;;;19.92;;
434;SDS011;204;48.942;9.256;2022-12-08T06:18:46;26.80;;;19.37;;
434;SDS011;204;48.942;9.256;2022-12-08T06:21:13;24.13;;;19.20;;
434;SDS011;204;48.942;9.256;2022-12-08T06:23:39;21.33;;;17.95;;
434;SDS011;204;48.942;9.256;2022-12-08T06:26:06;23.13;;;19.08;;
434;SDS011;204;48.942;9.256;2022-12-08T06:28:34;28.83;;;20.27;;
434;SDS011;204;48.942;9.256;2022-12-08T06:31:05;24.70;;;19.92;;
434;SDS011;204;48.942;9.256;2022-12-08T06:33:32;24.98;;;20.20;;
434;SDS011;204;48.942;9.256;2022-12-08T06:35:58;25.23;;;20.80;;
434;SDS011;204;48.942;9.256;2022-12-08T06:38:23;25.70;;;20.17;;
434;SDS011;204;48.942;9.256;2022-12-08T06:40:55;32.90;;;24.40;;
434;SDS011;204;48.942;9.256;2022-12-08T06:43:22;29.38;;;22.45;;
434;SDS011;204;48.942;9.256;2022-12-08T06:45:48;27.93;;;20.03;;
434;SDS011;204;48.942;9.256;2022-12-08T06:48:14;23.55;;;18.90;;
434;SDS011;204;48.942;9.256;2022-12-08T06:50:40;25.02;;;18.50;;
434;SDS011;204;48.942;9.256;2022-12-08T06:53:06;21.40;;;17.37;;
434;SDS011;204;48.942;9.256;2022-12-08T06:55:32;23.63;;;18.17;;
434;SDS011;204;48.942;9.256;2022-12-08T06:57:57;28.47;;;19.67;;
434;SDS011;204;48.942;9.256;2022-12-08T07:00:23;22.23;;;19.27;;
434;SDS011;204;48.942;9.256;2022-12-08T07:02:49;28.80;;;20.90;;
434;SDS011;204;48.942;9.256;2022-12-08T07:05:15;25.87;;;21.00;;
434;SDS011;204;48.942;9.256;2022-12-08T07:07:41;27.65;;;21.40;;
434;SDS011;204;48.942;9.256;2022-12-08T07:10:06;28.93;;;20.90;;
434;SDS011;204;48.942;9.256;2022-12-08T07:12:32;24.10;;;20.67;;
434;SDS011;204;48.942;9.256;2022-12-08T07:14:58;29.27;;;21.47;;
434;SDS011;204;48.942;9.256;2022-12-08T07:17:23;26.50;;;22.00;;
434;SDS011;204;48.942;9.256;2022-12-08T07:19:49;29.40;;;22.03;;
434;SDS011;204;48.942;9.256;2022-12-08T07:22:15;29.63;;;24.57;;
434;SDS011;204;48.942;9.256;2022-12-08T07:24:40;27.50;;;21.93;;
434;SDS011;204;48.942;9.256;2022-12-08T07:27:06;27.67;;;21.47;;
434;SDS011;204;48.942;9.256;2022-12-08T07:29:31;27.20;;;20.47;;
434;SDS011;204;48.942;9.256;2022-12-08T07:31:57;22.73;;;19.30;;
434;SDS011;204;48.942;9.256;2022-12-08T07:34:23;30.50;;;21.63;;
434;SDS011;204;48.942;9.256;2022-12-08T07:36:51;24.20;;;19.42;;
434;SDS011;204;48.942;9.256;2022-12-08T07:39:19;29.38;;;20.15;;
434;SDS011;204;48.942;9.256;2022-12-08T07:41:45;24.07;;;19.63;;
434;SDS011;204;48.942;9.256;2022-12-08T07:44:11;35.83;;;26.30;;
434;SDS011;204;48.942;9.256;2022-12-08T07:46:39;26.10;;;19.90;;
434;SDS011;204;48.942;9.256;2022-12-08T07:49:05;26.88;;;22.23;;
434;SDS011;204;48.942;9.256;2022-12-08T07:51:30;26.97;;;22.40;;
434;SDS011;204;48.942;9.256;2022-12-08T07:53:56;29.30;;;23.27;;
434;SDS011;204;48.942;9.256;2022-12-08T07:56:21;24.57;;;18.40;;
434;SDS011;204;48.942;9.256;2022-12-08T07:58:47;22.35;;;18.40;;
434;SDS011;204;48.942;9.256;2022-12-08T08:01:17;23.17;;;19.20;;
434;SDS011;204;48.942;9.256;2022-12-08T08:03:47;21.05;;;16.98;;
434;SDS011;204;48.942;9.256;2022-12-08T08:06:13;22.77;;;18.40;;
434;SDS011;204;48.942;9.256;2022-12-08T08:08:39;20.77;;;16.00;;
434;SDS011;204;48.942;9.256;2022-12-08T08:11:05;21.53;;;17.33;;
434;SDS011;204;48.942;9.256;2022-12-08T08:13:31;22.27;;;17.45;;
434;SDS011;204;48.942;9.256;2022-12-08T08:16:04;21.90;;;17.23;;
434;SDS011;204;48.942;9.256;2022-12-08T08:18:34;20.10;;;17.30;;
434;SDS011;204;48.942;9.256;2022-12-08T08:21:00;19.67;;;15.85;;
434;SDS011;204;48.942;9.256;2022-12-08T08:23:26;19.07;;;14.90;;
434;SDS011;204;48.942;9.256;2022-12-08T08:25:57;20.40;;;16.67;;
434;SDS011;204;48.942;9.256;2022-12-08T08:28:23;18.55;;;16.38;;
434;SDS011;204;48.942;9.256;2022-12-08T08:30:49;17.80;;;15.03;;
434;SDS011;204;48.942;9.256;2022-12-08T08:33:14;20.37;;;17.10;;
434;SDS011;204;48.942;9.256;2022-12-08T08:35:40;20.70;;;15.67;;
434;SDS011;204;48.942;9.256;2022-12-08T08:38:06;21.98;;;16.27;;
434;SDS011;204;48.942;9.256;2022-12-08T08:40:32;18.40;;;15.80;;
434;SDS011;204;48.942;9.256;2022-12-08T08:42:59;23.47;;;16.70;;
434;SDS011;204;48.942;9.256;2022-12-08T08:45:25;21.38;;;16.48;;
434;SDS011;204;48.942;9.256;2022-12-08T08:47:51;21.50;;;17.73;;
434;SDS011;204;48.942;9.256;2022-12-08T08:50:16;20.20;;;17.37;;
434;SDS011;204;48.942;9.256;2022-12-08T08:52:42;20.20;;;16.80;;
434;SDS011;204;48.942;9.256;2022-12-08T08:55:08;22.30;;;17.00;;
434;SDS011;204;48.942;9.256;2022-12-08T08:57:34;19.13;;;16.70;;
434;SDS011;204;48.942;9.256;2022-12-08T09:00:03;18.13;;;14.00;;
434;SDS011;204;48.942;9.256;2022-12-08T09:02:29;17.77;;;13.35;;
434;SDS011;204;48.942;9.256;2022-12-08T09:04:54;17.60;;;14.23;;
434;SDS011;204;48.942;9.256;2022-12-08T09:07:20;16.70;;;14.10;;
434;SDS011;204;48.942;9.256;2022-12-08T09:09:46;15.43;;;13.57;;
434;SDS011;204;48.942;9.256;2022-12-08T09:12:11;19.23;;;15.80;;
434;SDS011;204;48.942;9.256;2022-12-08T09:14:38;17.92;;;15.73;;
434;SDS011;204;48.942;9.256;2022-12-08T09:17:03;16.60;;;13.50;;
434;SDS011;204;48.942;9.256;2022-12-08T09:19:29;15.52;;;14.20;;
434;SDS011;204;48.942;9.256;2022-12-08T09:21:55;15.90;;;14.30;;
434;SDS011;204;48.942;9.256;2022-12-08T09:24:21;23.13;;;15.77;;
434;SDS011;204;48.942;9.256;2022-12-08T09:26:47;19.83;;;14.65;;
434;SDS011;204;48.942;9.256;2022-12-08T09:29:13;21.08;;;15.43;;
434;SDS011;204;48.942;9.256;2022-12-08T09:31:39;20.53;;;14.53;;
434;SDS011;204;48.942;9.256;2022-12-08T09:34:05;18.17;;;15.50;;
434;SDS011;204;48.942;9.256;2022-12-08T09:36:31;15.10;;;13.40;;
434;SDS011;204;48.942;9.256;2022-12-08T09:38:57;17.73;;;14.30;;
434;SDS011;204;48.942;9.256;2022-12-08T09:41:29;16.20;;;14.23;;
434;SDS011;204;48.942;9.256;2022-12-08T09:44:06;19.00;;;13.90;;
434;SDS011;204;48.942;9.256;2022-12-08T09:46:36;17.23;;;13.70;;
434;SDS011;204;48.942;9.256;2022-12-08T09:49:02;13.65;;;12.10;;
434;SDS011;204;48.942;9.256;2022-12-08T09:51:30;16.50;;;13.13;;
434;SDS011;204;48.942;9.256;2022-12-08T09:54:09;20.13;;;13.55;;
434;SDS011;204;48.942;9.256;2022-12-08T09:56:48;14.43;;;11.90;;
434;SDS011;204;48.942;9.256;2022-12-08T10:01:46;13.65;;;11.88;;
434;SDS011;204;48.942;9.256;2022-12-08T10:04:28;13.70;;;12.40;;
434;SDS011;204;48.942;9.256;2022-12-08T10:09:49;16.27;;;12.63;;
434;SDS011;204;48.942;9.256;2022-12-08T10:18:17;13.55;;;12.32;;
434;SDS011;204;48.942;9.256;2022-12-08T10:20:47;16.25;;;12.55;;
434;SDS011;204;48.942;9.256;2022-12-08T10:23:17;16.33;;;14.68;;
434;SDS011;204;48.942;9.256;2022-12-08T10:25:55;12.52;;;11.50;;
434;SDS011;204;48.942;9.256;2022-12-08T10:28:34;12.43;;;11.82;;
434;SDS011;204;48.942;9.256;2022-12-08T10:31:00;14.73;;;11.70;;
434;SDS011;204;48.942;9.256;2022-12-08T10:33:26;14.83;;;13.77;;
434;SDS011;204;48.942;9.256;2022-12-08T10:35:54;13.63;;;11.10;;
434;SDS011;204;48.942;9.256;2022-12-08T10:38:26;12.48;;;11.43;;
434;SDS011;204;48.942;9.256;2022-12-08T10:41:14;11.57;;;10.70;;
434;SDS011;204;48.942;9.256;2022-12-08T10:43:46;18.58;;;14.82;;
434;SDS011;204;48.942;9.256;2022-12-08T10:46:15;16.05;;;12.80;;
434;SDS011;204;48.942;9.256;2022-12-08T10:48:54;26.05;;;17.98;;
434;SDS011;204;48.942;9.256;2022-12-08T10:53:59;16.07;;;13.30;;
434;SDS011;204;48.942;9.256;2022-12-08T10:56:29;14.70;;;10.40;;
434;SDS011;204;48.942;9.256;2022-12-08T11:01:37;11.38;;;9.98;;
434;SDS011;204;48.942;9.256;2022-12-08T11:04:04;12.18;;;10.05;;
434;SDS011;204;48.942;9.256;2022-12-08T11:06:56;11.65;;;11.05;;
434;SDS011;204;48.942;9.256;2022-12-08T11:09:23;12.60;;;11.63;;
434;SDS011;204;48.942;9.256;2022-12-08T11:12:00;12.35;;;10.75;;
434;SDS011;204;48.942;9.256;2022-12-08T11:14:54;13.15;;;10.65;;
434;SDS011;204;48.942;9.256;2022-12-08T11:17:26;11.77;;;11.23;;
434;SDS011;204;48.942;9.256;2022-12-08T11:19:55;12.68;;;11.10;;
434;SDS011;204;48.942;9.256;2022-12-08T11:22:43;10.82;;;9.57;;
434;SDS011;204;48.942;9.256;2022-12-08T11:25:17;11.65;;;10.65;;
434;SDS011;204;48.942;9.256;2022-12-08T11:27:55;11.48;;;10.18;;
434;SDS011;204;48.942;9.256;2022-12-08T11:30:23;10.57;;;9.48;;
434;SDS011;204;48.942;9.256;2022-12-08T11:32:50;11.35;;;9.55;;
434;SDS011;204;48.942;9.256;2022-12-08T11:35:22;8.90;;;8.40;;
434;SDS011;204;48.942;9.256;2022-12-08T11:38:14;12.45;;;9.40;;
434;SDS011;204;48.942;9.256;2022-12-08T11:40:56;11.40;;;10.15;;
434;SDS011;204;48.942;9.256;2022-12-08T11:46:00;10.40;;;9.57;;
434;SDS011;204;48.942;9.256;2022-12-08T11:48:38;8.95;;;8.10;;
434;SDS011;204;48.942;9.256;2022-12-08T11:56:38;9.85;;;8.45;;
434;SDS011;204;48.942;9.256;2022-12-08T11:59:17;8.02;;;7.63;;
434;SDS011;204;48.942;9.256;2022-12-08T12:01:50;12.70;;;9.48;;
434;SDS011;204;48.942;9.256;2022-12-08T12:04:24;9.47;;;8.97;;
434;SDS011;204;48.942;9.256;2022-12-08T12:13:12;8.00;;;7.60;;
434;SDS011;204;48.942;9.256;2022-12-08T12:20:58;14.70;;;7.80;;
434;SDS011;204;48.942;9.256;2022-12-08T12:23:41;9.15;;;8.68;;
434;SDS011;204;48.942;9.256;2022-12-08T12:26:21;10.23;;;8.88;;
434;SDS011;204;48.942;9.256;2022-12-08T12:28:51;10.88;;;9.55;;
434;SDS011;204;48.942;9.256;2022-12-08T12:31:42;11.98;;;9.63;;
434;SDS011;204;48.942;9.256;2022-12-08T12:36:49;13.45;;;10.25;;
434;SDS011;204;48.942;9.256;2022-12-08T12:39:28;11.15;;;9.40;;
434;SDS011;204;48.942;9.256;2022-12-08T12:41:57;10.27;;;7.88;;
434;SDS011;204;48.942;9.256;2022-12-08T12:47:00;9.35;;;8.88;;
434;SDS011;204;48.942;9.256;2022-12-08T12:54:43;9.95;;;7.78;;
434;SDS011;204;48.942;9.256;2022-12-08T12:57:20;9.48;;;8.98;;
434;SDS011;204;48.942;9.256;2022-12-08T13:02:29;8.35;;;7.20;;
434;SDS011;204;48.942;9.256;2022-12-08T13:05:29;8.45;;;8.00;;
434;SDS011;204;48.942;9.256;2022-12-08T13:08:14;9.70;;;8.10;;
434;SDS011;204;48.942;9.256;2022-12-08T13:11:06;9.57;;;7.78;;
434;SDS011;204;48.942;9.256;2022-12-08T13:13:36;10.80;;;9.45;;
434;SDS011;204;48.942;9.256;2022-12-08T13:16:04;10.30;;;9.80;;
434;SDS011;204;48.942;9.256;2022-12-08T13:18:39;12.38;;;9.63;;
434;SDS011;204;48.942;9.256;2022-12-08T13:28:33;9.50;;;8.75;;
434;SDS011;204;48.942;9.256;2022-12-08T13:31:38;12.40;;;9.70;;
434;SDS011;204;48.942;9.256;2022-12-08T13:36:40;10.52;;;9.48;;
434;SDS011;204;48.942;9.256;2022-12-08T13:39:25;11.10;;;9.70;;
434;SDS011;204;48.942;9.256;2022-12-08T13:47:35;12.90;;;8.27;;
434;SDS011;204;48.942;9.256;2022-12-08T13:50:13;14.48;;;9.10;;
434;SDS011;204;48.942;9.256;2022-12-08T13:55:34;9.65;;;8.05;;
434;SDS011;204;48.942;9.256;2022-12-08T13:58:06;12.00;;;8.57;;
434;SDS011;204;48.942;9.256;2022-12-08T14:00:54;9.25;;;7.70;;
434;SDS011;204;48.942;9.256;2022-12-08T14:03:45;8.32;;;7.93;;
434;SDS011;204;48.942;9.256;2022-12-08T14:06:32;10.43;;;8.18;;
434;SDS011;204;48.942;9.256;2022-12-08T14:09:00;9.98;;;9.35;;
434;SDS011;204;48.942;9.256;2022-12-08T14:11:39;9.43;;;8.93;;
434;SDS011;204;48.942;9.256;2022-12-08T14:14:22;10.93;;;8.45;;
434;SDS011;204;48.942;9.256;2022-12-08T14:16:54;8.75;;;7.60;;
434;SDS011;204;48.942;9.256;2022-12-08T14:19:29;10.95;;;7.85;;
434;SDS011;204;48.942;9.256;2022-12-08T14:22:01;8.07;;;7.55;;
434;SDS011;204;48.942;9.256;2022-12-08T14:24:45;8.88;;;7.20;;
434;SDS011;204;48.942;9.256;2022-12-08T14:27:20;10.63;;;7.68;;
434;SDS011;204;48.942;9.256;2022-12-08T14:29:51;7.47;;;7.10;;
434;SDS011;204;48.942;9.256;2022-12-08T14:34:52;11.20;;;7.90;;
434;SDS011;204;48.942;9.256;2022-12-08T14:37:22;10.20;;;7.18;;
434;SDS011;204;48.942;9.256;2022-12-08T14:39:50;6.82;;;6.43;;
434;SDS011;204;48.942;9.256;2022-12-08T14:42:24;7.88;;;7.25;;
434;SDS011;204;48.942;9.256;2022-12-08T14:44:55;7.32;;;6.93;;
434;SDS011;204;48.942;9.256;2022-12-08T14:47:33;7.72;;;7.15;;
434;SDS011;204;48.942;9.256;2022-12-08T14:50:00;9.67;;;7.13;;
434;SDS011;204;48.942;9.256;2022-12-08T14:52:28;8.55;;;7.90;;
434;SDS011;204;48.942;9.256;2022-12-08T14:54:55;9.38;;;6.95;;
434;SDS011;204;48.942;9.256;2022-12-08T14:57:22;9.77;;;8.90;;
434;SDS011;204;48.942;9.256;2022-12-08T14:59:55;9.45;;;8.35;;
434;SDS011;204;48.942;9.256;2022-12-08T15:02:23;8.27;;;7.10;;
434;SDS011;204;48.942;9.256;2022-12-08T15:05:09;8.73;;;7.00;;
434;SDS011;204;48.942;9.256;2022-12-08T15:07:49;10.30;;;7.03;;
434;SDS011;204;48.942;9.256;2022-12-08T15:12:57;10.60;;;8.02;;
434;SDS011;204;48.942;9.256;2022-12-08T15:15:24;8.60;;;6.95;;
434;SDS011;204;48.942;9.256;2022-12-08T15:17:56;7.97;;;7.18;;
434;SDS011;204;48.942;9.256;2022-12-08T15:22:53;7.37;;;7.00;;
434;SDS011;204;48.942;9.256;2022-12-08T15:25:20;20.45;;;13.60;;
434;SDS011;204;48.942;9.256;2022-12-08T15:27:47;18.52;;;14.45;;
434;SDS011;204;48.942;9.256;2022-12-08T15:30:13;15.63;;;11.47;;
434;SDS011;204;48.942;9.256;2022-12-08T15:32:40;13.55;;;10.93;;
434;SDS011;204;48.942;9.256;2022-12-08T15:35:06;10.23;;;9.67;;
434;SDS011;204;48.942;9.256;2022-12-08T15:37:36;10.57;;;8.20;;
434;SDS011;204;48.942;9.256;2022-12-08T15:40:02;11.40;;;9.00;;
434;SDS011;204;48.942;9.256;2022-12-08T15:42:28;17.00;;;11.93;;
434;SDS011;204;48.942;9.256;2022-12-08T15:44:53;32.73;;;19.97;;
434;SDS011;204;48.942;9.256;2022-12-08T15:47:20;33.07;;;22.97;;
434;SDS011;204;48.942;9.256;2022-12-08T15:49:48;30.73;;;19.70;;
434;SDS011;204;48.942;9.256;2022-12-08T15:52:16;32.97;;;21.08;;
434;SDS011;204;48.942;9.256;2022-12-08T15:54:46;29.73;;;19.40;;
434;SDS011;204;48.942;9.256;2022-12-08T15:57:17;32.42;;;17.65;;
434;SDS011;204;48.942;9.256;2022-12-08T15:59:48;32.47;;;16.60;;
434;SDS011;204;48.942;9.256;2022-12-08T16:02:14;20.48;;;14.35;;
434;SDS011;204;48.942;9.256;2022-12-08T16:04:41;20.52;;;14.98;;
434;SDS011;204;48.942;9.256;2022-12-08T16:07:10;26.03;;;18.03;;
434;SDS011;204;48.942;9.256;2022-12-08T16:09:48;22.98;;;18.08;;
434;SDS011;204;48.942;9.256;2022-12-08T16:12:16;26.43;;;19.10;;
434;SDS011;204;48.942;9.256;2022-12-08T16:15:03;15.27;;;13.55;;
434;SDS011;204;48.942;9.256;2022-12-08T16:17:29;17.65;;;13.00;;
434;SDS011;204;48.942;9.256;2022-12-08T16:19:55;12.38;;;11.80;;
434;SDS011;204;48.942;9.256;2022-12-08T16:22:22;9.63;;;8.75;;
434;SDS011;204;48.942;9.256;2022-12-08T16:24:53;10.10;;;8.90;;
434;SDS011;204;48.942;9.256;2022-12-08T16:27:29;11.93;;;10.47;;
434;SDS011;204;48.942;9.256;2022-12-08T16:29:57;15.13;;;12.77;;
434;SDS011;204;48.942;9.256;2022-12-08T16:32:24;13.32;;;10.50;;
434;SDS011;204;48.942;9.256;2022-12-08T16:34:50;12.70;;;11.18;;
434;SDS011;204;48.942;9.256;2022-12-08T16:37:20;13.90;;;10.85;;
434;SDS011;204;48.942;9.256;2022-12-08T16:39:49;15.07;;;11.25;;
434;SDS011;204;48.942;9.256;2022-12-08T16:42:15;12.27;;;11.05;;
434;SDS011;204;48.942;9.256;2022-12-08T16:45:02;14.23;;;11.68;;
434;SDS011;204;48.942;9.256;2022-12-08T16:47:31;17.17;;;10.93;;
434;SDS011;204;48.942;9.256;2022-12-08T16:49:56;16.30;;;11.80;;
434;SDS011;204;48.942;9.256;2022-12-08T16:52:22;12.87;;;12.10;;
434;SDS011;204;48.942;9.256;2022-12-08T16:54:48;20.60;;;13.83;;
434;SDS011;204;48.942;9.256;2022-12-08T16:57:13;14.13;;;10.30;;
434;SDS011;204;48.942;9.256;2022-12-08T16:59:39;13.73;;;10.03;;
434;SDS011;204;48.942;9.256;2022-12-08T17:02:04;9.83;;;8.73;;
434;SDS011;204;48.942;9.256;2022-12-08T17:04:30;14.50;;;9.20;;
434;SDS011;204;48.942;9.256;2022-12-08T17:06:56;10.43;;;8.90;;
434;SDS011;204;48.942;9.256;2022-12-08T17:09:25;11.75;;;8.90;;
434;SDS011;204;48.942;9.256;2022-12-08T17:11:52;10.88;;;8.98;;
434;SDS011;204;48.942;9.256;2022-12-08T17:14:18;18.83;;;9.43;;
434;SDS011;204;48.942;9.256;2022-12-08T17:16:44;10.83;;;9.07;;
434;SDS011;204;48.942;9.256;2022-12-08T17:19:11;11.97;;;10.83;;
434;SDS011;204;48.942;9.256;2022-12-08T17:21:39;10.70;;;9.23;;
434;SDS011;204;48.942;9.256;2022-12-08T17:24:05;34.60;;;28.02;;